createdAt,value
2023-01-31T00:00:16.338Z,91.45
2023-01-31T00:01:16.160Z,91.55
2023-01-31T00:02:16.152Z,91.55
2023-01-31T00:03:16.196Z,91.45
2023-01-31T00:04:16.106Z,91.41
2023-01-31T00:05:16.114Z,91.55
2023-01-31T00:06:16.116Z,91.41
2023-01-31T00:07:16.096Z,91.31
2023-01-31T00:08:16.065Z,91.20
2023-01-31T00:09:16.086Z,91.10
2023-01-31T00:10:16.042Z,91.20
2023-01-31T00:11:16.057Z,91.10
2023-01-31T00:12:16.051Z,91.41
2023-01-31T00:13:16.069Z,91.20
2023-01-31T00:14:16.012Z,91.41
2023-01-31T00:15:16.017Z,91.41
2023-01-31T00:16:15.989Z,91.41
2023-01-31T00:17:16.022Z,91.41
2023-01-31T00:18:15.965Z,91.45
2023-01-31T00:19:15.970Z,91.52
2023-01-31T00:20:15.953Z,91.55
2023-01-31T00:21:15.959Z,91.66
2023-01-31T00:22:15.913Z,91.66
2023-01-31T00:23:15.960Z,91.86
2023-01-31T00:24:15.898Z,91.86
2023-01-31T00:25:15.912Z,91.86
2023-01-31T00:26:15.926Z,91.97
2023-01-31T00:27:15.915Z,91.97
2023-01-31T00:28:15.870Z,92.07
2023-01-31T00:29:15.954Z,91.97
2023-01-31T00:30:15.853Z,92.18
2023-01-31T00:31:15.993Z,92.18
2023-01-31T00:32:15.899Z,92.18
2023-01-31T00:33:15.836Z,92.07
2023-01-31T00:34:15.832Z,92.07
2023-01-31T00:35:15.804Z,91.86
2023-01-31T00:36:15.775Z,92.07
2023-01-31T00:37:15.784Z,92.07
2023-01-31T00:38:15.756Z,92.07
2023-01-31T00:39:15.767Z,92.07
2023-01-31T00:40:15.773Z,92.07
2023-01-31T00:41:15.740Z,92.07
2023-01-31T00:42:15.716Z,92.18
2023-01-31T00:43:15.721Z,92.28
2023-01-31T00:44:15.692Z,92.18
2023-01-31T00:45:15.704Z,92.28
2023-01-31T00:46:15.766Z,92.38
2023-01-31T00:47:15.677Z,92.49
2023-01-31T00:48:15.661Z,92.28
2023-01-31T00:49:15.667Z,92.28
2023-01-31T00:50:15.629Z,92.28
2023-01-31T00:51:15.652Z,92.38
2023-01-31T00:52:15.690Z,92.49
2023-01-31T00:53:15.640Z,92.63
2023-01-31T00:54:15.587Z,92.74
2023-01-31T00:55:15.595Z,92.84
2023-01-31T00:56:15.563Z,92.74
2023-01-31T00:57:15.594Z,92.84
2023-01-31T00:58:15.564Z,92.84
2023-01-31T00:59:15.553Z,93.05
2023-01-31T01:00:15.519Z,93.16
2023-01-31T01:01:15.539Z,93.16
2023-01-31T01:02:15.518Z,93.16
2023-01-31T01:03:15.521Z,93.16
2023-01-31T01:04:15.495Z,93.16
2023-01-31T01:05:15.490Z,93.26
2023-01-31T01:06:15.470Z,93.26
2023-01-31T01:07:15.471Z,93.26
2023-01-31T01:08:15.445Z,93.30
2023-01-31T01:09:15.461Z,93.62
2023-01-31T01:10:15.455Z,93.82
2023-01-31T01:11:15.434Z,93.82
2023-01-31T01:12:15.405Z,93.93
2023-01-31T01:13:15.417Z,93.93
2023-01-31T01:14:15.376Z,93.93
2023-01-31T01:15:15.392Z,93.93
2023-01-31T01:16:15.426Z,93.93
2023-01-31T01:17:15.376Z,93.82
2023-01-31T01:18:15.339Z,93.87
2023-01-31T01:19:15.353Z,94.07
2023-01-31T01:20:15.312Z,94.07
2023-01-31T01:21:15.328Z,94.28
2023-01-31T01:22:15.340Z,94.59
2023-01-31T01:23:15.314Z,94.70
2023-01-31T01:24:15.291Z,94.70
2023-01-31T01:25:15.285Z,94.70
2023-01-31T01:26:15.279Z,94.49
2023-01-31T01:27:15.274Z,94.59
2023-01-31T01:28:15.250Z,94.49
2023-01-31T01:29:15.241Z,94.59
2023-01-31T01:30:15.211Z,94.59
2023-01-31T01:31:15.307Z,94.49
2023-01-31T01:32:15.277Z,94.38
2023-01-31T01:33:15.212Z,94.38
2023-01-31T01:34:15.235Z,94.28
2023-01-31T01:35:15.184Z,94.49
2023-01-31T01:36:15.145Z,94.59
2023-01-31T01:37:15.162Z,94.59
2023-01-31T01:38:15.134Z,94.59
2023-01-31T01:39:15.148Z,94.80
2023-01-31T01:40:15.140Z,94.80
2023-01-31T01:41:15.168Z,95.11
2023-01-31T01:42:15.084Z,95.11
2023-01-31T01:43:15.102Z,95.01
2023-01-31T01:44:15.074Z,95.01
2023-01-31T01:45:15.083Z,95.26
2023-01-31T01:46:15.214Z,95.36
2023-01-31T01:47:15.062Z,95.57
2023-01-31T01:48:15.024Z,95.57
2023-01-31T01:49:15.039Z,95.57
2023-01-31T01:50:15.003Z,95.47
2023-01-31T01:51:15.023Z,95.42
2023-01-31T01:52:14.997Z,95.21
2023-01-31T01:53:15.002Z,95.11
2023-01-31T01:54:14.977Z,95.11
2023-01-31T01:55:14.981Z,95.01
2023-01-31T01:56:14.946Z,94.80
2023-01-31T01:57:14.952Z,94.90
2023-01-31T01:58:15.194Z,95.01
2023-01-31T01:59:14.935Z,95.01
2023-01-31T02:00:14.906Z,95.26
2023-01-31T02:01:14.944Z,95.15
2023-01-31T02:02:14.935Z,95.47
2023-01-31T02:03:14.897Z,95.47
2023-01-31T02:04:14.881Z,95.57
2023-01-31T02:05:14.888Z,95.47
2023-01-31T02:06:14.850Z,95.89
2023-01-31T02:07:14.851Z,95.57
2023-01-31T02:08:14.827Z,95.47
2023-01-31T02:09:14.843Z,95.67
2023-01-31T02:10:14.828Z,95.57
2023-01-31T02:11:14.812Z,95.57
2023-01-31T02:12:14.791Z,95.57
2023-01-31T02:13:14.793Z,95.26
2023-01-31T02:14:14.756Z,95.26
2023-01-31T02:15:14.772Z,95.05
2023-01-31T02:16:14.810Z,95.15
2023-01-31T02:17:14.749Z,95.26
2023-01-31T02:18:14.721Z,95.26
2023-01-31T02:19:14.733Z,95.47
2023-01-31T02:20:14.700Z,95.57
2023-01-31T02:21:14.711Z,95.78
2023-01-31T02:22:14.691Z,95.89
2023-01-31T02:23:14.691Z,95.67
2023-01-31T02:24:14.659Z,95.78
2023-01-31T02:25:14.681Z,95.78
2023-01-31T02:26:14.672Z,95.67
2023-01-31T02:27:14.647Z,95.57
2023-01-31T02:28:14.636Z,95.47
2023-01-31T02:29:14.626Z,95.36
2023-01-31T02:30:14.594Z,95.26
2023-01-31T02:31:14.626Z,95.36
2023-01-31T02:32:14.580Z,95.15
2023-01-31T02:33:14.583Z,94.95
2023-01-31T02:34:14.580Z,94.84
2023-01-31T02:35:14.570Z,94.74
2023-01-31T02:36:14.531Z,94.64
2023-01-31T02:37:14.543Z,94.64
2023-01-31T02:38:14.522Z,94.38
2023-01-31T02:39:14.522Z,94.28
2023-01-31T02:40:14.522Z,94.59
2023-01-31T02:41:14.505Z,94.59
2023-01-31T02:42:14.469Z,94.49
2023-01-31T02:43:14.514Z,94.18
2023-01-31T02:44:14.448Z,94.18
2023-01-31T02:45:14.463Z,94.07
2023-01-31T02:46:14.535Z,93.93
2023-01-31T02:47:14.458Z,93.62
2023-01-31T02:48:14.406Z,93.72
2023-01-31T02:49:14.420Z,93.82
2023-01-31T02:50:14.393Z,93.72
2023-01-31T02:51:14.401Z,93.72
2023-01-31T02:52:14.390Z,93.62
2023-01-31T02:53:14.382Z,92.94
2023-01-31T02:54:14.353Z,92.84
2023-01-31T02:55:14.364Z,92.84
2023-01-31T02:56:14.328Z,92.63
2023-01-31T02:57:14.336Z,92.43
2023-01-31T02:58:14.343Z,92.32
2023-01-31T02:59:14.325Z,92.22
2023-01-31T03:00:14.302Z,92.22
2023-01-31T03:01:15.271Z,92.53
2023-01-31T03:02:14.304Z,92.74
2023-01-31T03:03:14.280Z,92.63
2023-01-31T03:04:14.263Z,92.22
2023-01-31T03:05:14.254Z,92.11
2023-01-31T03:06:14.232Z,91.91
2023-01-31T03:07:14.236Z,92.01
2023-01-31T03:08:14.203Z,91.91
2023-01-31T03:09:14.215Z,92.22
2023-01-31T03:10:14.197Z,92.01
2023-01-31T03:11:14.209Z,92.32
2023-01-31T03:12:14.160Z,92.01
2023-01-31T03:13:14.179Z,91.91
2023-01-31T03:14:14.142Z,91.66
2023-01-31T03:15:14.149Z,91.66
2023-01-31T03:16:14.160Z,91.55
2023-01-31T03:17:14.135Z,91.45
2023-01-31T03:18:14.101Z,91.24
2023-01-31T03:19:14.180Z,91.14
2023-01-31T03:20:14.079Z,91.24
2023-01-31T03:21:14.123Z,91.24
2023-01-31T03:22:14.077Z,91.45
2023-01-31T03:23:14.067Z,91.45
2023-01-31T03:24:14.040Z,90.93
2023-01-31T03:25:14.060Z,90.93
2023-01-31T03:26:14.048Z,90.83
2023-01-31T03:27:14.029Z,90.62
2023-01-31T03:28:14.006Z,90.52
2023-01-31T03:29:14.003Z,90.41
2023-01-31T03:30:13.971Z,90.31
2023-01-31T03:31:14.092Z,90.41
2023-01-31T03:32:13.955Z,90.41
2023-01-31T03:33:13.979Z,90.41
2023-01-31T03:34:13.971Z,90.72
2023-01-31T03:35:13.951Z,90.52
2023-01-31T03:36:13.917Z,90.62
2023-01-31T03:37:13.935Z,90.77
2023-01-31T03:38:13.892Z,90.87
2023-01-31T03:39:13.919Z,90.87
2023-01-31T03:40:13.913Z,90.66
2023-01-31T03:41:13.879Z,90.66
2023-01-31T03:42:13.858Z,90.45
2023-01-31T03:43:13.869Z,90.56
2023-01-31T03:44:13.830Z,90.45
2023-01-31T03:45:13.842Z,90.56
2023-01-31T03:46:14.359Z,90.77
2023-01-31T03:47:14.466Z,90.97
2023-01-31T03:48:14.355Z,91.08
2023-01-31T03:49:14.065Z,91.18
2023-01-31T03:50:14.259Z,90.87
2023-01-31T03:51:13.930Z,90.66
2023-01-31T03:52:13.766Z,90.66
2023-01-31T03:53:13.872Z,90.25
2023-01-31T03:54:13.719Z,90.35
2023-01-31T03:55:13.736Z,90.25
2023-01-31T03:56:13.706Z,90.35
2023-01-31T03:57:13.712Z,90.35
2023-01-31T03:58:14.262Z,90.04
2023-01-31T03:59:14.098Z,90.14
2023-01-31T04:00:14.177Z,89.62
2023-01-31T04:01:14.227Z,89.58
2023-01-31T04:02:13.973Z,89.37
2023-01-31T04:03:13.847Z,89.06
2023-01-31T04:04:13.645Z,89.27
2023-01-31T04:05:13.631Z,89.27
2023-01-31T04:06:13.626Z,89.48
2023-01-31T04:07:13.593Z,89.48
2023-01-31T04:08:13.603Z,89.69
2023-01-31T04:09:13.998Z,89.62
2023-01-31T04:10:13.789Z,89.06
2023-01-31T04:11:14.047Z,89.48
2023-01-31T04:12:14.111Z,89.58
2023-01-31T04:13:13.858Z,89.27
2023-01-31T04:14:13.735Z,89.27
2023-01-31T04:15:13.597Z,89.79
2023-01-31T04:16:13.659Z,89.73
2023-01-31T04:17:13.487Z,89.58
2023-01-31T04:18:13.500Z,89.37
2023-01-31T04:19:13.464Z,89.48
2023-01-31T04:20:13.474Z,89.37
2023-01-31T04:21:13.443Z,89.37
2023-01-31T04:22:13.475Z,89.17
2023-01-31T04:23:13.421Z,89.48
2023-01-31T04:24:13.435Z,89.27
2023-01-31T04:25:13.399Z,89.27
2023-01-31T04:26:13.464Z,88.96
2023-01-31T04:27:13.390Z,88.75
2023-01-31T04:28:13.413Z,88.85
2023-01-31T04:29:13.360Z,88.75
2023-01-31T04:30:13.378Z,88.85
2023-01-31T04:31:13.424Z,88.85
2023-01-31T04:32:13.480Z,88.96
2023-01-31T04:33:13.319Z,88.96
2023-01-31T04:34:13.355Z,88.85
2023-01-31T04:35:13.305Z,89.17
2023-01-31T04:36:13.307Z,89.27
2023-01-31T04:37:13.280Z,89.48
2023-01-31T04:38:13.291Z,89.17
2023-01-31T04:39:13.280Z,89.37
2023-01-31T04:40:13.271Z,89.37
2023-01-31T04:41:13.254Z,89.48
2023-01-31T04:42:13.220Z,89.52
2023-01-31T04:43:13.241Z,89.48
2023-01-31T04:44:13.203Z,89.37
2023-01-31T04:45:13.219Z,89.48
2023-01-31T04:46:13.191Z,89.17
2023-01-31T04:47:13.206Z,89.27
2023-01-31T04:48:13.171Z,89.06
2023-01-31T04:49:13.173Z,89.06
2023-01-31T04:50:13.148Z,88.85
2023-01-31T04:51:13.156Z,88.65
2023-01-31T04:52:13.154Z,88.75
2023-01-31T04:53:13.129Z,88.96
2023-01-31T04:54:13.103Z,88.85
2023-01-31T04:55:13.110Z,88.65
2023-01-31T04:56:13.077Z,88.85
2023-01-31T04:57:13.088Z,89.06
2023-01-31T04:58:13.089Z,89.17
2023-01-31T04:59:13.071Z,89.27
2023-01-31T05:00:13.036Z,89.31
2023-01-31T05:01:13.072Z,89.42
2023-01-31T05:02:13.013Z,89.31
2023-01-31T05:03:13.033Z,89.52
2023-01-31T05:04:13.081Z,89.73
2023-01-31T05:05:13.000Z,89.73
2023-01-31T05:06:12.980Z,89.48
2023-01-31T05:07:12.999Z,89.37
2023-01-31T05:08:12.956Z,89.06
2023-01-31T05:09:13.037Z,89.06
2023-01-31T05:10:12.948Z,89.17
2023-01-31T05:11:12.944Z,89.48
2023-01-31T05:12:12.911Z,89.52
2023-01-31T05:13:12.934Z,89.62
2023-01-31T05:14:12.888Z,89.94
2023-01-31T05:15:12.916Z,89.94
2023-01-31T05:16:12.932Z,90.14
2023-01-31T05:17:12.887Z,89.83
2023-01-31T05:18:12.869Z,89.83
2023-01-31T05:19:12.863Z,89.83
2023-01-31T05:20:12.834Z,89.58
2023-01-31T05:21:12.857Z,89.62
2023-01-31T05:22:12.821Z,89.62
2023-01-31T05:23:12.819Z,89.69
2023-01-31T05:24:12.785Z,89.37
2023-01-31T05:25:12.799Z,89.48
2023-01-31T05:26:12.815Z,89.58
2023-01-31T05:27:12.778Z,89.69
2023-01-31T05:28:12.762Z,89.89
2023-01-31T05:29:12.756Z,89.58
2023-01-31T05:30:12.750Z,89.48
2023-01-31T05:31:12.839Z,89.48
2023-01-31T05:32:12.710Z,89.37
2023-01-31T05:33:12.715Z,89.58
2023-01-31T05:34:12.707Z,89.48
2023-01-31T05:35:12.694Z,89.48
2023-01-31T05:36:12.670Z,89.37
2023-01-31T05:37:12.682Z,89.37
2023-01-31T05:38:12.636Z,89.37
2023-01-31T05:39:12.655Z,89.17
2023-01-31T05:40:12.631Z,89.27
2023-01-31T05:41:12.631Z,89.27
2023-01-31T05:42:12.605Z,89.48
2023-01-31T05:43:12.621Z,90.04
2023-01-31T05:44:12.576Z,90.35
2023-01-31T05:45:12.595Z,90.35
2023-01-31T05:46:12.632Z,90.20
2023-01-31T05:47:12.570Z,90.00
2023-01-31T05:48:12.533Z,90.00
2023-01-31T05:49:12.548Z,90.20
2023-01-31T05:50:12.514Z,89.89
2023-01-31T05:51:12.526Z,89.79
2023-01-31T05:52:12.525Z,89.89
2023-01-31T05:53:12.510Z,90.10
2023-01-31T05:54:12.481Z,90.31
2023-01-31T05:55:12.487Z,90.45
2023-01-31T05:56:12.450Z,90.52
2023-01-31T05:57:12.467Z,90.41
2023-01-31T05:58:12.457Z,90.31
2023-01-31T05:59:12.445Z,90.10
2023-01-31T06:00:12.414Z,90.00
2023-01-31T06:01:12.434Z,90.10
2023-01-31T06:02:12.448Z,90.52
2023-01-31T06:03:12.414Z,90.62
2023-01-31T06:04:12.408Z,90.41
2023-01-31T06:05:12.442Z,90.62
2023-01-31T06:06:12.349Z,90.72
2023-01-31T06:07:12.377Z,90.72
2023-01-31T06:08:12.340Z,90.83
2023-01-31T06:09:12.366Z,90.72
2023-01-31T06:10:12.346Z,90.62
2023-01-31T06:11:12.338Z,90.62
2023-01-31T06:12:12.290Z,90.62
2023-01-31T06:13:12.300Z,90.83
2023-01-31T06:14:12.267Z,90.58
2023-01-31T06:15:12.315Z,90.69
2023-01-31T06:16:12.337Z,90.48
2023-01-31T06:17:12.272Z,90.58
2023-01-31T06:18:12.225Z,90.58
2023-01-31T06:19:12.235Z,90.48
2023-01-31T06:20:12.211Z,90.58
2023-01-31T06:21:12.336Z,90.69
2023-01-31T06:22:12.203Z,90.48
2023-01-31T06:23:12.194Z,90.58
2023-01-31T06:24:12.162Z,90.79
2023-01-31T06:25:12.180Z,90.48
2023-01-31T06:26:12.269Z,90.48
2023-01-31T06:27:12.161Z,90.37
2023-01-31T06:28:12.148Z,90.48
2023-01-31T06:29:12.130Z,90.48
2023-01-31T06:30:12.115Z,90.27
2023-01-31T06:31:12.278Z,90.37
2023-01-31T06:32:12.078Z,90.06
2023-01-31T06:33:12.090Z,89.96
2023-01-31T06:34:12.071Z,90.37
2023-01-31T06:35:12.071Z,90.27
2023-01-31T06:36:12.062Z,90.17
2023-01-31T06:37:12.048Z,90.06
2023-01-31T06:38:12.012Z,89.96
2023-01-31T06:39:12.041Z,90.27
2023-01-31T06:40:12.037Z,90.06
2023-01-31T06:41:12.007Z,90.17
2023-01-31T06:42:11.974Z,90.06
2023-01-31T06:43:11.982Z,89.61
2023-01-31T06:44:11.955Z,89.61
2023-01-31T06:45:12.047Z,89.86
2023-01-31T06:46:12.017Z,89.71
2023-01-31T06:47:11.943Z,89.75
2023-01-31T06:48:11.913Z,89.75
2023-01-31T06:49:11.926Z,89.40
2023-01-31T06:50:11.897Z,89.09
2023-01-31T06:51:11.901Z,88.98
2023-01-31T06:52:14.163Z,89.09
2023-01-31T06:53:11.881Z,88.78
2023-01-31T06:54:11.850Z,88.88
2023-01-31T06:55:11.875Z,88.98
2023-01-31T06:56:11.824Z,88.15
2023-01-31T06:57:11.845Z,88.15
2023-01-31T06:58:11.837Z,88.26
2023-01-31T06:59:11.816Z,88.57
2023-01-31T07:00:11.784Z,88.36
2023-01-31T07:01:11.837Z,88.15
2023-01-31T07:02:11.764Z,87.59
2023-01-31T07:03:11.776Z,87.80
2023-01-31T07:04:11.763Z,87.49
2023-01-31T07:05:11.753Z,87.28
2023-01-31T07:06:11.723Z,87.18
2023-01-31T07:07:11.734Z,86.97
2023-01-31T07:08:11.700Z,87.18
2023-01-31T07:09:11.720Z,87.18
2023-01-31T07:10:11.709Z,87.18
2023-01-31T07:11:11.686Z,87.38
2023-01-31T07:12:11.659Z,87.38
2023-01-31T07:13:11.672Z,86.76
2023-01-31T07:14:11.636Z,86.55
2023-01-31T07:15:11.649Z,86.55
2023-01-31T07:16:11.685Z,86.76
2023-01-31T07:17:11.628Z,86.15
2023-01-31T07:18:11.596Z,86.35
2023-01-31T07:19:11.608Z,86.15
2023-01-31T07:20:11.579Z,86.15
2023-01-31T07:21:11.588Z,86.10
2023-01-31T07:22:11.576Z,85.79
2023-01-31T07:23:11.563Z,85.58
2023-01-31T07:24:11.531Z,85.69
2023-01-31T07:25:11.553Z,85.69
2023-01-31T07:26:11.509Z,85.58
2023-01-31T07:27:11.521Z,85.48
2023-01-31T07:28:11.816Z,85.38
2023-01-31T07:29:11.507Z,85.58
2023-01-31T07:30:11.473Z,85.48
2023-01-31T07:31:11.520Z,85.58
2023-01-31T07:32:11.452Z,85.48
2023-01-31T07:33:11.463Z,85.48
2023-01-31T07:34:11.444Z,85.69
2023-01-31T07:35:11.439Z,85.89
2023-01-31T07:36:11.406Z,85.58
2023-01-31T07:37:11.421Z,85.69
2023-01-31T07:38:11.666Z,86.00
2023-01-31T07:39:11.400Z,85.89
2023-01-31T07:40:11.389Z,85.69
2023-01-31T07:41:11.388Z,85.89
2023-01-31T07:42:11.355Z,85.79
2023-01-31T07:43:11.359Z,86.00
2023-01-31T07:44:11.325Z,85.79
2023-01-31T07:45:22.342Z,85.79
2023-01-31T07:46:11.503Z,86.10
2023-01-31T07:47:11.324Z,85.79
2023-01-31T07:48:11.278Z,86.00
2023-01-31T07:49:11.293Z,86.35
2023-01-31T07:50:11.263Z,86.66
2023-01-31T07:51:11.277Z,86.66
2023-01-31T07:52:11.253Z,86.55
2023-01-31T07:53:11.249Z,86.55
2023-01-31T07:54:11.217Z,86.41
2023-01-31T07:55:11.231Z,86.21
2023-01-31T07:56:11.206Z,86.31
2023-01-31T07:57:11.207Z,86.10
2023-01-31T07:58:11.219Z,86.00
2023-01-31T07:59:11.189Z,86.00
2023-01-31T08:00:11.160Z,85.89
2023-01-31T08:01:11.273Z,85.89
2023-01-31T08:02:11.139Z,85.38
2023-01-31T08:03:11.155Z,85.34
2023-01-31T08:04:21.067Z,85.55
2023-01-31T08:05:11.183Z,85.55
2023-01-31T08:06:11.107Z,85.55
2023-01-31T08:07:11.108Z,85.24
2023-01-31T08:08:11.067Z,85.03
2023-01-31T08:09:11.089Z,85.03
2023-01-31T08:10:11.076Z,85.34
2023-01-31T08:11:11.069Z,85.13
2023-01-31T08:12:11.032Z,84.88
2023-01-31T08:13:11.068Z,84.99
2023-01-31T08:14:11.015Z,85.30
2023-01-31T08:15:11.019Z,84.37
2023-01-31T08:16:11.016Z,84.68
2023-01-31T08:17:11.034Z,84.78
2023-01-31T08:18:10.965Z,84.88
2023-01-31T08:19:10.991Z,85.09
2023-01-31T08:20:10.946Z,84.88
2023-01-31T08:21:10.956Z,84.88
2023-01-31T08:22:10.959Z,84.99
2023-01-31T08:23:10.916Z,84.99
2023-01-31T08:24:10.925Z,84.78
2023-01-31T08:25:10.889Z,85.40
2023-01-31T08:26:10.917Z,85.40
2023-01-31T08:27:10.870Z,85.24
2023-01-31T08:28:10.907Z,84.68
2023-01-31T08:29:10.858Z,84.88
2023-01-31T08:30:10.861Z,85.03
2023-01-31T08:31:10.910Z,85.55
2023-01-31T08:32:10.905Z,85.65
2023-01-31T08:33:10.809Z,85.71
2023-01-31T08:34:10.840Z,85.40
2023-01-31T08:35:10.790Z,85.71
2023-01-31T08:36:10.804Z,85.50
2023-01-31T08:37:10.810Z,86.54
2023-01-31T08:38:16.629Z,86.54
2023-01-31T08:39:10.759Z,86.23
2023-01-31T08:40:10.779Z,85.92
2023-01-31T08:41:10.722Z,85.30
2023-01-31T08:42:10.737Z,85.82
2023-01-31T08:43:10.700Z,85.30
2023-01-31T08:44:10.730Z,85.61
2023-01-31T08:45:10.688Z,85.19
2023-01-31T08:46:10.724Z,85.50
2023-01-31T08:47:10.673Z,84.88
2023-01-31T08:48:10.697Z,85.19
2023-01-31T08:49:10.641Z,85.19
2023-01-31T08:50:22.299Z,84.88
2023-01-31T08:51:10.632Z,84.58
2023-01-31T08:52:10.654Z,84.22
2023-01-31T08:53:10.598Z,83.81
2023-01-31T08:54:10.613Z,84.33
2023-01-31T08:55:10.573Z,84.95
2023-01-31T08:56:10.588Z,86.13
2023-01-31T08:57:10.570Z,86.75
2023-01-31T08:58:10.583Z,87.37
2023-01-31T08:59:10.541Z,87.37
2023-01-31T09:00:10.544Z,87.99
2023-01-31T09:01:10.516Z,87.47
2023-01-31T09:02:10.522Z,87.16
2023-01-31T09:03:10.519Z,87.06
2023-01-31T09:04:10.538Z,87.68
2023-01-31T09:05:10.469Z,88.30
2023-01-31T09:06:10.486Z,88.92
2023-01-31T09:07:10.454Z,88.82
2023-01-31T09:08:10.460Z,89.38
2023-01-31T09:09:10.428Z,88.76
2023-01-31T09:10:10.457Z,89.07
2023-01-31T09:11:10.407Z,89.28
2023-01-31T09:12:10.446Z,88.86
2023-01-31T09:13:10.389Z,88.76
2023-01-31T09:14:10.403Z,89.17
2023-01-31T09:15:10.365Z,89.58
2023-01-31T09:16:11.368Z,89.28
2023-01-31T09:17:10.372Z,89.38
2023-01-31T09:18:10.356Z,89.28
2023-01-31T09:19:10.336Z,90.72
2023-01-31T09:20:10.364Z,90.62
2023-01-31T09:21:10.305Z,91.55
2023-01-31T09:22:10.338Z,91.55
2023-01-31T09:23:10.304Z,91.70
2023-01-31T09:24:10.322Z,91.49
2023-01-31T09:25:10.281Z,92.22
2023-01-31T09:26:10.272Z,92.94
2023-01-31T09:27:10.243Z,94.29
2023-01-31T09:28:10.268Z,93.98
2023-01-31T09:29:10.223Z,93.66
2023-01-31T09:30:10.229Z,94.08
2023-01-31T09:31:10.313Z,94.60
2023-01-31T09:32:10.209Z,94.49
2023-01-31T09:33:10.178Z,94.39
2023-01-31T09:34:10.204Z,94.49
2023-01-31T09:35:10.155Z,94.70
2023-01-31T09:36:10.171Z,94.49
2023-01-31T09:37:10.132Z,94.29
2023-01-31T09:38:10.143Z,94.08
2023-01-31T09:39:10.216Z,94.49
2023-01-31T09:40:10.146Z,94.18
2023-01-31T09:41:10.091Z,93.25
2023-01-31T09:42:10.103Z,93.77
2023-01-31T09:43:10.080Z,93.98
2023-01-31T09:44:10.082Z,92.43
2023-01-31T09:45:10.055Z,92.11
2023-01-31T09:46:10.087Z,92.01
2023-01-31T09:47:10.137Z,92.07
2023-01-31T09:48:10.046Z,91.86
2023-01-31T09:49:10.008Z,91.66
2023-01-31T09:50:11.105Z,92.11
2023-01-31T09:51:09.986Z,91.45
2023-01-31T09:52:10.017Z,91.55
2023-01-31T09:53:09.968Z,91.76
2023-01-31T09:54:09.978Z,92.18
2023-01-31T09:55:09.957Z,91.76
2023-01-31T09:56:09.978Z,92.28
2023-01-31T09:57:09.941Z,92.07
2023-01-31T09:58:09.970Z,92.18
2023-01-31T09:59:09.910Z,92.49
2023-01-31T10:00:09.916Z,92.59
2023-01-31T10:01:09.937Z,92.38
2023-01-31T10:02:09.895Z,92.28
2023-01-31T10:03:09.861Z,93.00
2023-01-31T10:04:09.921Z,91.97
2023-01-31T10:05:09.842Z,92.24
2023-01-31T10:06:09.858Z,92.18
2023-01-31T10:07:09.820Z,92.59
2023-01-31T10:08:09.840Z,92.90
2023-01-31T10:09:09.803Z,93.41
2023-01-31T10:10:09.875Z,92.90
2023-01-31T10:11:10.268Z,93.52
2023-01-31T10:12:09.791Z,93.62
2023-01-31T10:13:09.755Z,93.83
2023-01-31T10:14:09.777Z,94.04
2023-01-31T10:15:09.736Z,93.62
2023-01-31T10:16:09.770Z,93.93
2023-01-31T10:17:09.789Z,93.73
2023-01-31T10:18:09.736Z,94.04
2023-01-31T10:19:09.700Z,93.62
2023-01-31T10:20:09.705Z,93.87
2023-01-31T10:21:09.773Z,94.49
2023-01-31T10:22:09.725Z,94.35
2023-01-31T10:23:09.667Z,94.45
2023-01-31T10:24:09.667Z,94.49
2023-01-31T10:25:09.632Z,95.01
2023-01-31T10:26:11.208Z,95.53
2023-01-31T10:27:09.611Z,95.74
2023-01-31T10:28:09.729Z,95.84
2023-01-31T10:29:09.590Z,96.78
2023-01-31T10:30:09.601Z,96.47
2023-01-31T10:31:09.602Z,96.36
2023-01-31T10:32:09.625Z,96.57
2023-01-31T10:33:09.550Z,96.26
2023-01-31T10:34:09.579Z,96.88
2023-01-31T10:35:09.539Z,96.78
2023-01-31T10:36:09.540Z,96.88
2023-01-31T10:37:09.509Z,96.67
2023-01-31T10:38:09.525Z,97.19
2023-01-31T10:39:09.486Z,96.88
2023-01-31T10:40:09.528Z,96.47
2023-01-31T10:41:09.465Z,96.15
2023-01-31T10:42:09.562Z,96.36
2023-01-31T10:43:09.443Z,96.57
2023-01-31T10:44:09.459Z,95.64
2023-01-31T10:45:09.424Z,95.53
2023-01-31T10:46:09.506Z,96.15
2023-01-31T10:47:09.402Z,95.64
2023-01-31T10:48:09.417Z,95.90
2023-01-31T10:49:09.398Z,95.95
2023-01-31T10:50:09.394Z,96.15
2023-01-31T10:51:09.372Z,96.57
2023-01-31T10:52:09.413Z,97.09
2023-01-31T10:53:09.344Z,97.19
2023-01-31T10:54:09.356Z,97.50
2023-01-31T10:55:09.323Z,97.81
2023-01-31T10:56:09.407Z,97.39
2023-01-31T10:57:09.312Z,97.71
2023-01-31T10:58:09.340Z,97.60
2023-01-31T10:59:09.292Z,98.12
2023-01-31T11:00:09.288Z,97.60
2023-01-31T11:01:09.297Z,97.50
2023-01-31T11:02:09.329Z,97.50
2023-01-31T11:03:09.238Z,97.71
2023-01-31T11:04:09.264Z,97.39
2023-01-31T11:05:09.222Z,97.60
2023-01-31T11:06:09.232Z,97.29
2023-01-31T11:07:09.199Z,97.50
2023-01-31T11:08:09.211Z,97.50
2023-01-31T11:09:09.178Z,97.50
2023-01-31T11:10:09.216Z,97.50
2023-01-31T11:11:09.200Z,97.09
2023-01-31T11:12:09.211Z,97.09
2023-01-31T11:13:09.130Z,97.09
2023-01-31T11:14:09.145Z,96.98
2023-01-31T11:15:09.131Z,97.04
2023-01-31T11:16:09.175Z,97.50
2023-01-31T11:17:09.088Z,98.12
2023-01-31T11:18:09.100Z,97.91
2023-01-31T11:19:09.068Z,98.64
2023-01-31T11:20:09.085Z,98.22
2023-01-31T11:21:09.047Z,98.74
2023-01-31T11:22:09.084Z,98.85
2023-01-31T11:23:09.027Z,99.16
2023-01-31T11:24:09.044Z,99.47
2023-01-31T11:25:09.007Z,99.78
2023-01-31T11:26:09.021Z,99.78
2023-01-31T11:27:08.999Z,99.57
2023-01-31T11:28:09.015Z,99.99
2023-01-31T11:29:08.979Z,99.99
2023-01-31T11:30:08.974Z,99.99
2023-01-31T11:31:08.978Z,99.99
2023-01-31T11:32:08.958Z,99.99
2023-01-31T11:33:08.922Z,99.88
2023-01-31T11:34:08.970Z,99.78
2023-01-31T11:35:08.918Z,99.78
2023-01-31T11:36:08.914Z,99.78
2023-01-31T11:37:08.881Z,99.68
2023-01-31T11:38:08.899Z,99.88
2023-01-31T11:39:08.860Z,99.78
2023-01-31T11:40:08.904Z,99.99
2023-01-31T11:41:08.837Z,99.78
2023-01-31T11:42:08.855Z,99.68
2023-01-31T11:43:08.821Z,99.68
2023-01-31T11:44:08.840Z,99.57
2023-01-31T11:45:08.800Z,99.47
2023-01-31T11:46:08.879Z,99.16
2023-01-31T11:47:08.779Z,98.85
2023-01-31T11:48:08.796Z,99.01
2023-01-31T11:49:08.755Z,98.80
2023-01-31T11:50:08.778Z,98.91
2023-01-31T11:51:08.745Z,98.28
2023-01-31T11:52:08.759Z,97.97
2023-01-31T11:53:08.719Z,97.45
2023-01-31T11:54:08.725Z,97.72
2023-01-31T11:55:08.704Z,97.52
2023-01-31T11:56:08.709Z,97.62
2023-01-31T11:57:08.676Z,96.69
2023-01-31T11:58:08.712Z,97.00
2023-01-31T11:59:08.654Z,96.89
2023-01-31T12:00:08.669Z,96.37
2023-01-31T12:01:08.636Z,96.48
2023-01-31T12:02:08.775Z,95.54
2023-01-31T12:03:09.374Z,95.71
2023-01-31T12:04:08.706Z,95.50
2023-01-31T12:05:08.587Z,95.50
2023-01-31T12:06:08.621Z,95.40
2023-01-31T12:07:08.567Z,95.29
2023-01-31T12:08:08.588Z,95.40
2023-01-31T12:09:08.555Z,95.71
2023-01-31T12:10:08.572Z,95.09
2023-01-31T12:11:08.524Z,95.19
2023-01-31T12:12:08.544Z,94.78
2023-01-31T12:13:18.200Z,94.68
2023-01-31T12:14:08.521Z,94.53
2023-01-31T12:15:08.485Z,94.32
2023-01-31T12:16:08.535Z,93.80
2023-01-31T12:17:08.462Z,93.80
2023-01-31T12:18:08.480Z,93.91
2023-01-31T12:19:08.451Z,94.22
2023-01-31T12:20:25.471Z,94.37
2023-01-31T12:21:08.430Z,94.37
2023-01-31T12:22:08.463Z,94.78
2023-01-31T12:23:08.426Z,94.68
2023-01-31T12:24:08.426Z,94.68
2023-01-31T12:25:08.383Z,94.47
2023-01-31T12:26:08.398Z,94.73
2023-01-31T12:27:08.378Z,94.78
2023-01-31T12:28:08.389Z,94.73
2023-01-31T12:29:10.789Z,94.73
2023-01-31T12:30:08.350Z,94.43
2023-01-31T12:31:08.496Z,94.43
2023-01-31T12:32:08.329Z,94.12
2023-01-31T12:33:08.299Z,94.22
2023-01-31T12:34:08.342Z,94.63
2023-01-31T12:35:10.167Z,93.91
2023-01-31T12:36:08.296Z,94.12
2023-01-31T12:37:08.259Z,93.91
2023-01-31T12:38:08.243Z,93.80
2023-01-31T12:39:08.257Z,94.01
2023-01-31T12:40:23.765Z,93.49
2023-01-31T12:41:08.264Z,93.24
2023-01-31T12:42:08.211Z,93.04
2023-01-31T12:43:08.218Z,93.24
2023-01-31T12:44:08.183Z,93.04
2023-01-31T12:45:08.189Z,93.24
2023-01-31T12:46:08.227Z,92.93
2023-01-31T12:47:11.532Z,93.04
2023-01-31T12:48:08.144Z,93.45
2023-01-31T12:49:08.169Z,93.45
2023-01-31T12:50:08.126Z,93.04
2023-01-31T12:51:08.129Z,93.24
2023-01-31T12:52:08.121Z,93.35